sensor_id;sensor_type;location;lat;lon;timestamp;pressure;altitude;pressure_sealevel;temperature;humidity
54948;BME280;41113;41.882;12.530;2023-09-18T00:00:25;101308.47;;;23.80;63.16
54948;BME280;41113;41.882;12.530;2023-09-18T00:02:50;101303.19;;;23.85;62.57
54948;BME280;41113;41.882;12.530;2023-09-18T00:05:16;101302.34;;;23.84;62.55
54948;BME280;41113;41.882;12.530;2023-09-18T00:07:42;101299.19;;;23.87;62.79
54948;BME280;41113;41.882;12.530;2023-09-18T00:10:13;101295.38;;;23.88;62.74
54948;BME280;41113;41.882;12.530;2023-09-18T00:12:40;101285.03;;;23.84;62.54
54948;BME280;41113;41.882;12.530;2023-09-18T00:15:06;101279.13;;;23.80;63.03
54948;BME280;41113;41.882;12.530;2023-09-18T00:17:35;101281.44;;;23.83;62.69
54948;BME280;41113;41.882;12.530;2023-09-18T00:20:00;101273.63;;;23.80;62.97
54948;BME280;41113;41.882;12.530;2023-09-18T00:22:26;101268.56;;;23.77;62.90
54948;BME280;41113;41.882;12.530;2023-09-18T00:24:51;101251.47;;;23.75;63.24
54948;BME280;41113;41.882;12.530;2023-09-18T00:27:16;101247.06;;;23.74;63.11
54948;BME280;41113;41.882;12.530;2023-09-18T00:29:42;101252.53;;;23.74;62.60
54948;BME280;41113;41.882;12.530;2023-09-18T00:32:08;101249.56;;;23.69;62.71
54948;BME280;41113;41.882;12.530;2023-09-18T00:34:33;101249.13;;;23.66;63.02
54948;BME280;41113;41.882;12.530;2023-09-18T00:36:58;101257.97;;;23.61;63.25
54948;BME280;41113;41.882;12.530;2023-09-18T00:39:27;101266.41;;;23.59;63.20
54948;BME280;41113;41.882;12.530;2023-09-18T00:41:52;101264.28;;;23.55;63.28
54948;BME280;41113;41.882;12.530;2023-09-18T00:44:22;101258.56;;;23.50;63.51
54948;BME280;41113;41.882;12.530;2023-09-18T00:46:48;101264.47;;;23.47;63.55
54948;BME280;41113;41.882;12.530;2023-09-18T00:49:15;101269.94;;;23.47;63.13
54948;BME280;41113;41.882;12.530;2023-09-18T00:51:41;101269.25;;;23.38;63.78
54948;BME280;41113;41.882;12.530;2023-09-18T00:54:06;101262.53;;;23.41;63.38
54948;BME280;41113;41.882;12.530;2023-09-18T00:56:33;101255.41;;;23.53;62.85
54948;BME280;41113;41.882;12.530;2023-09-18T00:58:59;101259.88;;;23.61;62.88
54948;BME280;41113;41.882;12.530;2023-09-18T01:01:25;101260.00;;;23.39;64.26
54948;BME280;41113;41.882;12.530;2023-09-18T01:03:51;101245.22;;;23.34;64.13
54948;BME280;41113;41.882;12.530;2023-09-18T01:06:18;101246.91;;;23.28;64.52
54948;BME280;41113;41.882;12.530;2023-09-18T01:08:45;101249.22;;;23.24;64.67
54948;BME280;41113;41.882;12.530;2023-09-18T01:16:39;101238.03;;;23.19;64.50
54948;BME280;41113;41.882;12.530;2023-09-18T01:19:09;101247.06;;;23.13;65.07
54948;BME280;41113;41.882;12.530;2023-09-18T01:21:34;101241.34;;;23.08;64.83
54948;BME280;41113;41.882;12.530;2023-09-18T01:24:00;101237.91;;;22.93;65.46
54948;BME280;41113;41.882;12.530;2023-09-18T01:26:25;101231.38;;;22.94;65.49
54948;BME280;41113;41.882;12.530;2023-09-18T01:28:50;101227.81;;;23.00;65.47
54948;BME280;41113;41.882;12.530;2023-09-18T01:31:16;101235.41;;;22.98;65.12
54948;BME280;41113;41.882;12.530;2023-09-18T01:33:43;101233.72;;;23.04;64.82
54948;BME280;41113;41.882;12.530;2023-09-18T01:36:12;101237.38;;;23.17;64.16
54948;BME280;41113;41.882;12.530;2023-09-18T01:38:38;101231.03;;;23.10;64.54
54948;BME280;41113;41.882;12.530;2023-09-18T01:41:04;101216.28;;;23.11;64.30
54948;BME280;41113;41.882;12.530;2023-09-18T01:43:29;101219.88;;;23.18;64.00
54948;BME280;41113;41.882;12.530;2023-09-18T01:45:55;101207.66;;;23.14;64.43
54948;BME280;41113;41.882;12.530;2023-09-18T01:48:21;101205.06;;;23.06;64.68
54948;BME280;41113;41.882;12.530;2023-09-18T01:50:46;101206.31;;;22.97;64.97
54948;BME280;41113;41.882;12.530;2023-09-18T01:53:11;101204.00;;;22.94;65.39
54948;BME280;41113;41.882;12.530;2023-09-18T01:55:37;101195.78;;;22.94;65.60
54948;BME280;41113;41.882;12.530;2023-09-18T01:58:02;101208.44;;;23.08;64.70
54948;BME280;41113;41.882;12.530;2023-09-18T02:00:28;101210.97;;;23.03;64.89
54948;BME280;41113;41.882;12.530;2023-09-18T02:02:53;101211.44;;;23.13;64.39
54948;BME280;41113;41.882;12.530;2023-09-18T02:05:18;101215.25;;;23.19;64.62
54948;BME280;41113;41.882;12.530;2023-09-18T02:07:44;101219.25;;;23.16;64.25
54948;BME280;41113;41.882;12.530;2023-09-18T02:10:09;101224.53;;;23.24;64.25
54948;BME280;41113;41.882;12.530;2023-09-18T02:12:34;101225.78;;;23.15;64.59
54948;BME280;41113;41.882;12.530;2023-09-18T02:15:00;101212.53;;;23.25;64.01
54948;BME280;41113;41.882;12.530;2023-09-18T02:17:29;101218.00;;;23.19;64.99
54948;BME280;41113;41.882;12.530;2023-09-18T02:19:54;101215.25;;;23.25;64.05
54948;BME280;41113;41.882;12.530;2023-09-18T02:22:19;101220.75;;;23.32;64.06
54948;BME280;41113;41.882;12.530;2023-09-18T02:24:45;101217.19;;;23.32;63.96
54948;BME280;41113;41.882;12.530;2023-09-18T02:27:10;101223.31;;;23.40;63.75
54948;BME280;41113;41.882;12.530;2023-09-18T02:29:37;101220.81;;;23.45;63.40
54948;BME280;41113;41.882;12.530;2023-09-18T02:32:02;101211.13;;;23.49;63.37
54948;BME280;41113;41.882;12.530;2023-09-18T02:34:28;101215.34;;;23.52;63.19
54948;BME280;41113;41.882;12.530;2023-09-18T02:36:53;101206.94;;;23.60;63.06
54948;BME280;41113;41.882;12.530;2023-09-18T02:39:19;101200.16;;;23.49;63.63
54948;BME280;41113;41.882;12.530;2023-09-18T02:41:44;101197.75;;;23.13;64.92
54948;BME280;41113;41.882;12.530;2023-09-18T02:44:09;101203.03;;;23.21;64.59
54948;BME280;41113;41.882;12.530;2023-09-18T02:46:37;101197.97;;;23.18;65.09
54948;BME280;41113;41.882;12.530;2023-09-18T02:49:02;101192.44;;;23.05;65.26
54948;BME280;41113;41.882;12.530;2023-09-18T02:51:28;101195.13;;;22.92;66.29
54948;BME280;41113;41.882;12.530;2023-09-18T02:53:53;101193.03;;;23.01;65.29
54948;BME280;41113;41.882;12.530;2023-09-18T02:56:19;101189.47;;;23.07;65.25
54948;BME280;41113;41.882;12.530;2023-09-18T02:58:44;101195.00;;;23.13;65.00
54948;BME280;41113;41.882;12.530;2023-09-18T03:01:09;101187.41;;;23.15;64.93
54948;BME280;41113;41.882;12.530;2023-09-18T03:03:35;101186.53;;;23.08;64.92
54948;BME280;41113;41.882;12.530;2023-09-18T03:06:01;101185.72;;;23.14;64.90
54948;BME280;41113;41.882;12.530;2023-09-18T03:08:28;101185.91;;;23.06;65.02
54948;BME280;41113;41.882;12.530;2023-09-18T03:10:53;101184.84;;;23.07;65.08
54948;BME280;41113;41.882;12.530;2023-09-18T03:13:19;101173.66;;;23.02;65.27
54948;BME280;41113;41.882;12.530;2023-09-18T03:15:45;101179.75;;;22.91;65.67
54948;BME280;41113;41.882;12.530;2023-09-18T03:18:13;101173.81;;;22.81;66.36
54948;BME280;41113;41.882;12.530;2023-09-18T03:20:39;101180.31;;;22.80;65.60
54948;BME280;41113;41.882;12.530;2023-09-18T03:23:05;101171.31;;;22.92;65.33
54948;BME280;41113;41.882;12.530;2023-09-18T03:25:30;101176.69;;;22.73;66.10
54948;BME280;41113;41.882;12.530;2023-09-18T03:27:57;101170.94;;;22.61;66.71
54948;BME280;41113;41.882;12.530;2023-09-18T03:30:23;101165.28;;;22.69;66.37
54948;BME280;41113;41.882;12.530;2023-09-18T03:32:50;101168.22;;;22.67;66.45
54948;BME280;41113;41.882;12.530;2023-09-18T03:35:16;101163.16;;;22.64;66.29
54948;BME280;41113;41.882;12.530;2023-09-18T03:37:50;101168.47;;;22.73;66.38
54948;BME280;41113;41.882;12.530;2023-09-18T03:40:16;101155.19;;;22.70;66.05
54948;BME280;41113;41.882;12.530;2023-09-18T03:42:42;101174.19;;;22.78;65.90
54948;BME280;41113;41.882;12.530;2023-09-18T03:45:08;101171.31;;;22.86;65.90
54948;BME280;41113;41.882;12.530;2023-09-18T03:47:35;101166.16;;;22.76;66.38
54948;BME280;41113;41.882;12.530;2023-09-18T03:50:02;101164.94;;;22.79;66.13
54948;BME280;41113;41.882;12.530;2023-09-18T03:52:27;101169.63;;;22.85;65.76
54948;BME280;41113;41.882;12.530;2023-09-18T03:54:52;101171.75;;;22.89;65.85
54948;BME280;41113;41.882;12.530;2023-09-18T03:57:18;101177.22;;;22.96;65.23
54948;BME280;41113;41.882;12.530;2023-09-18T03:59:43;101166.94;;;23.05;65.21
54948;BME280;41113;41.882;12.530;2023-09-18T04:02:08;101171.75;;;22.96;65.47
54948;BME280;41113;41.882;12.530;2023-09-18T04:04:34;101172.81;;;23.02;65.25
54948;BME280;41113;41.882;12.530;2023-09-18T04:06:59;101175.97;;;22.92;66.03
54948;BME280;41113;41.882;12.530;2023-09-18T04:09:24;101178.41;;;22.80;66.54
54948;BME280;41113;41.882;12.530;2023-09-18T04:11:50;101180.16;;;22.88;66.44
54948;BME280;41113;41.882;12.530;2023-09-18T04:14:16;101181.88;;;22.95;65.88
54948;BME280;41113;41.882;12.530;2023-09-18T04:16:41;101184.78;;;22.81;67.73
54948;BME280;41113;41.882;12.530;2023-09-18T04:19:08;101176.22;;;22.62;68.42
54948;BME280;41113;41.882;12.530;2023-09-18T04:21:35;101169.88;;;22.55;68.06
54948;BME280;41113;41.882;12.530;2023-09-18T04:24:01;101171.75;;;22.48;68.64
54948;BME280;41113;41.882;12.530;2023-09-18T04:26:27;101168.41;;;22.59;67.64
54948;BME280;41113;41.882;12.530;2023-09-18T04:28:56;101181.69;;;22.62;67.78
54948;BME280;41113;41.882;12.530;2023-09-18T04:31:22;101180.53;;;22.78;66.99
54948;BME280;41113;41.882;12.530;2023-09-18T04:33:47;101184.78;;;22.87;66.76
54948;BME280;41113;41.882;12.530;2023-09-18T04:36:13;101194.91;;;22.87;66.76
54948;BME280;41113;41.882;12.530;2023-09-18T04:38:39;101190.28;;;22.94;66.34
54948;BME280;41113;41.882;12.530;2023-09-18T04:41:04;101182.72;;;22.96;66.69
54948;BME280;41113;41.882;12.530;2023-09-18T04:43:29;101183.56;;;23.03;66.35
54948;BME280;41113;41.882;12.530;2023-09-18T04:45:56;101194.13;;;23.06;66.47
54948;BME280;41113;41.882;12.530;2023-09-18T04:48:21;101185.31;;;22.76;67.71
54948;BME280;41113;41.882;12.530;2023-09-18T04:50:46;101177.69;;;22.58;68.33
54948;BME280;41113;41.882;12.530;2023-09-18T04:53:13;101184.28;;;22.36;69.67
54948;BME280;41113;41.882;12.530;2023-09-18T04:55:38;101181.03;;;22.19;70.00
54948;BME280;41113;41.882;12.530;2023-09-18T04:58:05;101185.09;;;22.30;69.52
54948;BME280;41113;41.882;12.530;2023-09-18T05:00:32;101181.53;;;22.36;69.47
54948;BME280;41113;41.882;12.530;2023-09-18T05:02:59;101188.09;;;22.42;68.93
54948;BME280;41113;41.882;12.530;2023-09-18T05:05:28;101191.69;;;22.42;69.00
54948;BME280;41113;41.882;12.530;2023-09-18T05:07:54;101187.53;;;22.46;68.80
54948;BME280;41113;41.882;12.530;2023-09-18T05:10:19;101193.53;;;22.35;69.75
54948;BME280;41113;41.882;12.530;2023-09-18T05:12:45;101180.72;;;22.42;69.24
54948;BME280;41113;41.882;12.530;2023-09-18T05:15:11;101175.34;;;22.55;68.65
54948;BME280;41113;41.882;12.530;2023-09-18T05:17:46;101183.38;;;22.63;68.28
54948;BME280;41113;41.882;12.530;2023-09-18T05:20:13;101178.47;;;22.87;67.40
54948;BME280;41113;41.882;12.530;2023-09-18T05:22:39;101189.06;;;23.03;66.91
54948;BME280;41113;41.882;12.530;2023-09-18T05:25:05;101185.53;;;23.16;66.46
54948;BME280;41113;41.882;12.530;2023-09-18T05:27:32;101191.44;;;23.19;66.44
54948;BME280;41113;41.882;12.530;2023-09-18T05:29:57;101185.94;;;23.19;66.55
54948;BME280;41113;41.882;12.530;2023-09-18T05:32:23;101183.66;;;23.29;66.44
54948;BME280;41113;41.882;12.530;2023-09-18T05:34:48;101190.44;;;23.47;65.71
54948;BME280;41113;41.882;12.530;2023-09-18T05:37:13;101197.03;;;23.59;65.48
54948;BME280;41113;41.882;12.530;2023-09-18T05:39:39;101189.63;;;23.66;65.43
54948;BME280;41113;41.882;12.530;2023-09-18T05:42:05;101188.34;;;23.49;65.90
54948;BME280;41113;41.882;12.530;2023-09-18T05:44:30;101191.97;;;23.82;64.90
54948;BME280;41113;41.882;12.530;2023-09-18T05:46:56;101200.84;;;23.91;64.48
54948;BME280;41113;41.882;12.530;2023-09-18T05:49:21;101198.94;;;23.92;64.52
54948;BME280;41113;41.882;12.530;2023-09-18T05:51:46;101202.94;;;23.89;64.35
54948;BME280;41113;41.882;12.530;2023-09-18T05:54:14;101211.59;;;23.79;64.60
54948;BME280;41113;41.882;12.530;2023-09-18T05:56:39;101216.66;;;24.02;63.87
54948;BME280;41113;41.882;12.530;2023-09-18T05:59:04;101218.13;;;24.18;63.38
54948;BME280;41113;41.882;12.530;2023-09-18T06:01:31;101229.31;;;24.23;63.09
54948;BME280;41113;41.882;12.530;2023-09-18T06:03:58;101220.88;;;24.31;62.95
54948;BME280;41113;41.882;12.530;2023-09-18T06:06:23;101225.53;;;24.11;63.20
54948;BME280;41113;41.882;12.530;2023-09-18T06:08:52;101221.72;;;23.99;63.77
54948;BME280;41113;41.882;12.530;2023-09-18T06:11:19;101224.91;;;24.15;63.21
54948;BME280;41113;41.882;12.530;2023-09-18T06:13:44;101220.88;;;24.11;63.21
54948;BME280;41113;41.882;12.530;2023-09-18T06:16:09;101220.44;;;24.21;62.81
54948;BME280;41113;41.882;12.530;2023-09-18T06:18:35;101215.38;;;24.31;62.59
54948;BME280;41113;41.882;12.530;2023-09-18T06:21:03;101219.63;;;24.14;62.81
54948;BME280;41113;41.882;12.530;2023-09-18T06:23:28;101219.63;;;23.87;63.55
54948;BME280;41113;41.882;12.530;2023-09-18T06:25:53;101217.72;;;23.95;63.64
54948;BME280;41113;41.882;12.530;2023-09-18T06:28:22;101210.31;;;24.02;63.29
54948;BME280;41113;41.882;12.530;2023-09-18T06:30:47;101208.63;;;23.94;62.22
54948;BME280;41113;41.882;12.530;2023-09-18T06:33:13;101207.81;;;23.80;62.36
54948;BME280;41113;41.882;12.530;2023-09-18T06:35:39;101202.31;;;23.94;62.38
54948;BME280;41113;41.882;12.530;2023-09-18T06:38:08;101208.66;;;23.87;61.71
54948;BME280;41113;41.882;12.530;2023-09-18T06:40:53;101212.63;;;24.05;61.50
54948;BME280;41113;41.882;12.530;2023-09-18T06:43:20;101216.44;;;24.17;61.25
54948;BME280;41113;41.882;12.530;2023-09-18T06:45:45;101216.44;;;24.24;60.36
54948;BME280;41113;41.882;12.530;2023-09-18T06:48:11;101209.03;;;24.24;60.62
54948;BME280;41113;41.882;12.530;2023-09-18T06:50:36;101214.13;;;24.07;60.75
54948;BME280;41113;41.882;12.530;2023-09-18T06:53:02;101222.78;;;24.11;60.60
54948;BME280;41113;41.882;12.530;2023-09-18T06:55:27;101216.25;;;24.12;61.03
54948;BME280;41113;41.882;12.530;2023-09-18T06:57:53;101220.25;;;24.16;60.57
54948;BME280;41113;41.882;12.530;2023-09-18T07:00:18;101222.56;;;24.45;59.86
54948;BME280;41113;41.882;12.530;2023-09-18T07:02:46;101219.56;;;24.60;59.64
54948;BME280;41113;41.882;12.530;2023-09-18T07:05:12;101213.22;;;24.60;59.70
54948;BME280;41113;41.882;12.530;2023-09-18T07:07:37;101208.59;;;24.54;60.32
54948;BME280;41113;41.882;12.530;2023-09-18T07:10:03;101208.94;;;24.70;59.89
54948;BME280;41113;41.882;12.530;2023-09-18T07:12:28;101205.13;;;24.71;59.57
54948;BME280;41113;41.882;12.530;2023-09-18T07:14:53;101207.28;;;24.63;59.27
54948;BME280;41113;41.882;12.530;2023-09-18T07:17:19;101204.34;;;24.58;59.69
54948;BME280;41113;41.882;12.530;2023-09-18T07:19:45;101203.09;;;24.54;59.91
54948;BME280;41113;41.882;12.530;2023-09-18T07:22:11;101204.28;;;24.84;59.32
54948;BME280;41113;41.882;12.530;2023-09-18T07:24:37;101205.31;;;24.90;58.73
54948;BME280;41113;41.882;12.530;2023-09-18T07:27:06;101198.50;;;25.05;58.66
54948;BME280;41113;41.882;12.530;2023-09-18T07:29:31;101210.97;;;25.01;58.65
54948;BME280;41113;41.882;12.530;2023-09-18T07:31:56;101210.13;;;25.07;58.69
54948;BME280;41113;41.882;12.530;2023-09-18T07:34:22;101225.34;;;25.10;58.67
54948;BME280;41113;41.882;12.530;2023-09-18T07:36:47;101227.59;;;25.20;57.90
54948;BME280;41113;41.882;12.530;2023-09-18T07:39:12;101228.75;;;25.05;58.15
54948;BME280;41113;41.882;12.530;2023-09-18T07:41:38;101222.78;;;25.15;58.23
54948;BME280;41113;41.882;12.530;2023-09-18T07:44:04;101219.84;;;25.48;57.38
54948;BME280;41113;41.882;12.530;2023-09-18T07:46:30;101219.66;;;25.43;56.78
54948;BME280;41113;41.882;12.530;2023-09-18T07:48:55;101232.84;;;25.28;57.85
54948;BME280;41113;41.882;12.530;2023-09-18T07:51:21;101232.03;;;25.21;57.41
54948;BME280;41113;41.882;12.530;2023-09-18T07:53:46;101233.72;;;25.22;57.30
54948;BME280;41113;41.882;12.530;2023-09-18T07:56:12;101237.94;;;25.24;57.03
54948;BME280;41113;41.882;12.530;2023-09-18T07:58:38;101241.09;;;25.28;57.27
54948;BME280;41113;41.882;12.530;2023-09-18T08:01:06;101249.91;;;25.43;57.06
54948;BME280;41113;41.882;12.530;2023-09-18T08:03:34;101246.19;;;25.62;56.39
54948;BME280;41113;41.882;12.530;2023-09-18T08:05:59;101261.75;;;25.82;56.06
54948;BME280;41113;41.882;12.530;2023-09-18T08:08:25;101269.28;;;25.93;55.86
54948;BME280;41113;41.882;12.530;2023-09-18T08:10:51;101258.78;;;26.08;55.56
54948;BME280;41113;41.882;12.530;2023-09-18T08:13:17;101273.84;;;26.05;55.54
54948;BME280;41113;41.882;12.530;2023-09-18T08:15:43;101271.31;;;26.04;55.58
54948;BME280;41113;41.882;12.530;2023-09-18T08:18:11;101282.84;;;26.19;55.19
54948;BME280;41113;41.882;12.530;2023-09-18T08:20:42;101280.41;;;26.29;54.85
54948;BME280;41113;41.882;12.530;2023-09-18T08:23:09;101281.88;;;26.39;55.00
54948;BME280;41113;41.882;12.530;2023-09-18T08:25:34;101283.94;;;26.43;54.81
54948;BME280;41113;41.882;12.530;2023-09-18T08:28:00;101267.94;;;26.52;54.58
54948;BME280;41113;41.882;12.530;2023-09-18T08:30:25;101266.88;;;26.34;55.00
54948;BME280;41113;41.882;12.530;2023-09-18T08:32:51;101261.75;;;26.38;54.48
54948;BME280;41113;41.882;12.530;2023-09-18T08:35:16;101261.50;;;26.40;54.69
54948;BME280;41113;41.882;12.530;2023-09-18T08:37:42;101265.78;;;26.29;54.91
54948;BME280;41113;41.882;12.530;2023-09-18T08:40:11;101260.97;;;26.24;54.98
54948;BME280;41113;41.882;12.530;2023-09-18T08:42:48;101257.38;;;26.49;54.61
54948;BME280;41113;41.882;12.530;2023-09-18T08:45:27;101254.34;;;26.75;53.92
54948;BME280;41113;41.882;12.530;2023-09-18T08:47:55;101256.66;;;26.78;53.58
54948;BME280;41113;41.882;12.530;2023-09-18T08:50:21;101262.00;;;26.91;53.64
54948;BME280;41113;41.882;12.530;2023-09-18T08:52:48;101268.00;;;27.07;53.08
54948;BME280;41113;41.882;12.530;2023-09-18T08:55:14;101271.28;;;27.34;52.38
54948;BME280;41113;41.882;12.530;2023-09-18T08:57:41;101269.69;;;27.56;52.36
54948;BME280;41113;41.882;12.530;2023-09-18T09:00:07;101275.56;;;27.78;51.81
54948;BME280;41113;41.882;12.530;2023-09-18T09:02:36;101272.81;;;27.89;51.57
54948;BME280;41113;41.882;12.530;2023-09-18T09:05:02;101268.25;;;27.95;51.44
54948;BME280;41113;41.882;12.530;2023-09-18T09:07:28;101267.81;;;27.98;49.85
54948;BME280;41113;41.882;12.530;2023-09-18T09:09:56;101263.97;;;27.99;50.97
54948;BME280;41113;41.882;12.530;2023-09-18T09:12:51;101267.94;;;28.03;49.41
54948;BME280;41113;41.882;12.530;2023-09-18T09:15:17;101258.94;;;28.19;50.50
54948;BME280;41113;41.882;12.530;2023-09-18T09:17:43;101258.22;;;28.12;49.89
54948;BME280;41113;41.882;12.530;2023-09-18T09:20:11;101260.28;;;28.29;49.87
54948;BME280;41113;41.882;12.530;2023-09-18T09:22:38;101262.59;;;28.43;49.55
54948;BME280;41113;41.882;12.530;2023-09-18T09:25:03;101268.69;;;28.57;49.48
54948;BME280;41113;41.882;12.530;2023-09-18T09:27:29;101261.25;;;28.69;49.12
54948;BME280;41113;41.882;12.530;2023-09-18T09:29:58;101264.97;;;28.75;48.89
54948;BME280;41113;41.882;12.530;2023-09-18T09:32:24;101264.97;;;28.87;48.78
54948;BME280;41113;41.882;12.530;2023-09-18T09:34:49;101259.78;;;28.90;48.48
54948;BME280;41113;41.882;12.530;2023-09-18T09:37:29;101254.16;;;28.97;47.54
54948;BME280;41113;41.882;12.530;2023-09-18T09:39:56;101244.03;;;28.91;47.96
54948;BME280;41113;41.882;12.530;2023-09-18T09:42:21;101241.28;;;28.79;47.06
54948;BME280;41113;41.882;12.530;2023-09-18T09:45:02;101242.03;;;28.74;46.41
54948;BME280;41113;41.882;12.530;2023-09-18T09:47:32;101240.94;;;28.75;45.94
54948;BME280;41113;41.882;12.530;2023-09-18T09:49:58;101240.19;;;28.80;46.33
54948;BME280;41113;41.882;12.530;2023-09-18T09:52:23;101250.31;;;28.98;46.37
54948;BME280;41113;41.882;12.530;2023-09-18T09:54:49;101230.34;;;28.84;45.36
54948;BME280;41113;41.882;12.530;2023-09-18T09:57:14;101231.22;;;28.73;46.17
54948;BME280;41113;41.882;12.530;2023-09-18T09:59:40;101225.53;;;28.91;46.34
54948;BME280;41113;41.882;12.530;2023-09-18T10:02:10;101230.56;;;29.06;46.20
54948;BME280;41113;41.882;12.530;2023-09-18T10:04:39;101226.81;;;29.12;46.24
54948;BME280;41113;41.882;12.530;2023-09-18T10:07:07;101228.88;;;29.05;45.67
54948;BME280;41113;41.882;12.530;2023-09-18T10:09:39;101228.19;;;28.98;43.87
54948;BME280;41113;41.882;12.530;2023-09-18T10:12:11;101223.50;;;28.98;43.63
54948;BME280;41113;41.882;12.530;2023-09-18T10:14:37;101231.66;;;28.93;43.40
54948;BME280;41113;41.882;12.530;2023-09-18T10:17:17;101228.88;;;29.05;42.85
54948;BME280;41113;41.882;12.530;2023-09-18T10:24:56;101216.25;;;29.37;44.22
54948;BME280;41113;41.882;12.530;2023-09-18T10:27:25;101212.69;;;29.54;44.19
54948;BME280;41113;41.882;12.530;2023-09-18T10:29:52;101205.50;;;29.69;43.91
54948;BME280;41113;41.882;12.530;2023-09-18T10:32:20;101200.88;;;29.75;43.70
54948;BME280;41113;41.882;12.530;2023-09-18T10:34:47;101206.00;;;29.83;43.80
54948;BME280;41113;41.882;12.530;2023-09-18T10:37:14;101201.06;;;29.85;43.97
54948;BME280;41113;41.882;12.530;2023-09-18T10:39:41;101199.38;;;29.84;43.97
54948;BME280;41113;41.882;12.530;2023-09-18T10:42:07;101197.63;;;29.78;44.15
54948;BME280;41113;41.882;12.530;2023-09-18T10:44:33;101202.47;;;29.71;43.72
54948;BME280;41113;41.882;12.530;2023-09-18T10:47:02;101194.19;;;29.71;43.08
54948;BME280;41113;41.882;12.530;2023-09-18T10:49:28;101199.28;;;29.79;42.25
54948;BME280;41113;41.882;12.530;2023-09-18T10:51:55;101191.66;;;29.86;41.77
54948;BME280;41113;41.882;12.530;2023-09-18T10:54:23;101193.50;;;29.97;41.17
54948;BME280;41113;41.882;12.530;2023-09-18T10:56:49;101187.47;;;30.00;40.21
54948;BME280;41113;41.882;12.530;2023-09-18T10:59:15;101185.91;;;30.04;39.87
54948;BME280;41113;41.882;12.530;2023-09-18T11:01:42;101182.44;;;30.14;39.79
54948;BME280;41113;41.882;12.530;2023-09-18T11:04:08;101182.09;;;30.27;39.60
54948;BME280;41113;41.882;12.530;2023-09-18T11:09:26;101181.41;;;30.37;37.70
54948;BME280;41113;41.882;12.530;2023-09-18T11:14:41;101171.91;;;30.55;36.28
54948;BME280;41113;41.882;12.530;2023-09-18T11:17:28;101162.38;;;30.46;33.94
54948;BME280;41113;41.882;12.530;2023-09-18T11:20:07;101161.16;;;30.37;33.26
54948;BME280;41113;41.882;12.530;2023-09-18T11:22:38;101164.19;;;30.35;37.79
54948;BME280;41113;41.882;12.530;2023-09-18T11:25:35;101150.31;;;30.35;34.96
54948;BME280;41113;41.882;12.530;2023-09-18T11:28:03;101151.34;;;30.29;37.87
54948;BME280;41113;41.882;12.530;2023-09-18T11:30:29;101144.56;;;30.20;37.29
54948;BME280;41113;41.882;12.530;2023-09-18T11:32:55;101146.34;;;30.26;35.58
54948;BME280;41113;41.882;12.530;2023-09-18T11:35:21;101135.25;;;30.26;34.93
54948;BME280;41113;41.882;12.530;2023-09-18T11:37:47;101143.09;;;30.34;36.41
54948;BME280;41113;41.882;12.530;2023-09-18T11:40:33;101128.16;;;30.35;34.50
54948;BME280;41113;41.882;12.530;2023-09-18T11:43:21;101119.91;;;30.40;35.51
54948;BME280;41113;41.882;12.530;2023-09-18T11:45:52;101120.75;;;30.41;36.53
54948;BME280;41113;41.882;12.530;2023-09-18T11:48:19;101119.25;;;30.33;36.80
54948;BME280;41113;41.882;12.530;2023-09-18T11:50:46;101117.53;;;30.27;36.96
54948;BME280;41113;41.882;12.530;2023-09-18T11:53:16;101125.31;;;30.30;36.83
54948;BME280;41113;41.882;12.530;2023-09-18T11:55:43;101125.38;;;30.35;37.02
54948;BME280;41113;41.882;12.530;2023-09-18T11:58:08;101127.84;;;30.31;36.97
54948;BME280;41113;41.882;12.530;2023-09-18T12:00:35;101124.16;;;30.26;37.38
54948;BME280;41113;41.882;12.530;2023-09-18T12:03:17;101119.03;;;30.18;36.36
54948;BME280;41113;41.882;12.530;2023-09-18T12:06:02;101120.13;;;30.17;35.96
54948;BME280;41113;41.882;12.530;2023-09-18T12:08:31;101113.44;;;30.13;36.99
54948;BME280;41113;41.882;12.530;2023-09-18T12:10:57;101114.06;;;30.20;36.15
54948;BME280;41113;41.882;12.530;2023-09-18T12:13:27;101108.38;;;30.26;35.01
54948;BME280;41113;41.882;12.530;2023-09-18T12:16:03;101107.53;;;30.26;34.42
54948;BME280;41113;41.882;12.530;2023-09-18T12:18:32;101107.53;;;30.26;35.87
54948;BME280;41113;41.882;12.530;2023-09-18T12:21:01;101110.31;;;30.26;35.41
54948;BME280;41113;41.882;12.530;2023-09-18T12:23:29;101105.34;;;30.28;35.74
54948;BME280;41113;41.882;12.530;2023-09-18T12:26:00;101105.34;;;30.28;33.93
54948;BME280;41113;41.882;12.530;2023-09-18T12:28:26;101105.34;;;30.28;34.91
54948;BME280;41113;41.882;12.530;2023-09-18T12:30:56;101104.41;;;30.22;35.12
54948;BME280;41113;41.882;12.530;2023-09-18T12:33:25;101099.13;;;30.21;34.41
54948;BME280;41113;41.882;12.530;2023-09-18T12:35:50;101093.78;;;30.14;30.33
54948;BME280;41113;41.882;12.530;2023-09-18T12:38:19;101094.09;;;30.18;34.02
54948;BME280;41113;41.882;12.530;2023-09-18T12:40:49;101092.59;;;30.27;33.87
54948;BME280;41113;41.882;12.530;2023-09-18T12:43:15;101084.34;;;30.32;34.05
54948;BME280;41113;41.882;12.530;2023-09-18T12:45:42;101075.56;;;30.40;33.48
54948;BME280;41113;41.882;12.530;2023-09-18T12:48:09;101082.06;;;30.51;33.65
54948;BME280;41113;41.882;12.530;2023-09-18T12:50:35;101079.03;;;30.52;33.22
54948;BME280;41113;41.882;12.530;2023-09-18T12:53:13;101072.38;;;30.53;30.83
54948;BME280;41113;41.882;12.530;2023-09-18T12:55:41;101067.41;;;30.55;33.77